sensor_id;sensor_type;location;lat;lon;timestamp;P1;durP1;ratioP1;P2;durP2;ratioP2
61756;SDS011;57225;61.460;24.060;2024-03-08T00:00:33;19.10;;;5.90;;
61756;SDS011;57225;61.460;24.060;2024-03-08T00:03:18;34.28;;;5.85;;
61756;SDS011;57225;61.460;24.060;2024-03-08T00:06:03;35.70;;;5.60;;
61756;SDS011;57225;61.460;24.060;2024-03-08T00:08:48;14.32;;;5.32;;
61756;SDS011;57225;61.460;24.060;2024-03-08T00:11:33;11.35;;;4.85;;
61756;SDS011;57225;61.460;24.060;2024-03-08T00:14:18;12.05;;;5.07;;
61756;SDS011;57225;61.460;24.060;2024-03-08T00:17:03;20.27;;;6.05;;
61756;SDS011;57225;61.460;24.060;2024-03-08T00:19:48;22.77;;;6.00;;
61756;SDS011;57225;61.460;24.060;2024-03-08T00:22:34;13.40;;;5.28;;
61756;SDS011;57225;61.460;24.060;2024-03-08T00:25:19;16.30;;;5.90;;
61756;SDS011;57225;61.460;24.060;2024-03-08T00:28:04;16.40;;;5.78;;
61756;SDS011;57225;61.460;24.060;2024-03-08T00:30:49;15.70;;;5.78;;
61756;SDS011;57225;61.460;24.060;2024-03-08T00:33:33;17.15;;;6.22;;
61756;SDS011;57225;61.460;24.060;2024-03-08T00:36:18;18.05;;;6.82;;
61756;SDS011;57225;61.460;24.060;2024-03-08T00:39:04;14.05;;;6.18;;
61756;SDS011;57225;61.460;24.060;2024-03-08T00:41:50;15.13;;;6.13;;
61756;SDS011;57225;61.460;24.060;2024-03-08T00:44:34;13.65;;;6.15;;
61756;SDS011;57225;61.460;24.060;2024-03-08T00:47:19;18.30;;;5.93;;
61756;SDS011;57225;61.460;24.060;2024-03-08T00:50:03;13.27;;;5.80;;
61756;SDS011;57225;61.460;24.060;2024-03-08T00:52:48;11.57;;;5.30;;
61756;SDS011;57225;61.460;24.060;2024-03-08T00:55:33;11.07;;;5.18;;
61756;SDS011;57225;61.460;24.060;2024-03-08T00:58:18;11.65;;;5.43;;
61756;SDS011;57225;61.460;24.060;2024-03-08T01:01:03;12.85;;;5.15;;
61756;SDS011;57225;61.460;24.060;2024-03-08T01:03:48;12.45;;;5.45;;
61756;SDS011;57225;61.460;24.060;2024-03-08T01:06:32;13.82;;;6.03;;
61756;SDS011;57225;61.460;24.060;2024-03-08T01:09:17;15.45;;;5.47;;
61756;SDS011;57225;61.460;24.060;2024-03-08T01:12:02;15.77;;;6.10;;
61756;SDS011;57225;61.460;24.060;2024-03-08T01:14:47;12.23;;;5.38;;
61756;SDS011;57225;61.460;24.060;2024-03-08T01:17:31;18.63;;;5.72;;
61756;SDS011;57225;61.460;24.060;2024-03-08T01:20:16;12.70;;;4.70;;
61756;SDS011;57225;61.460;24.060;2024-03-08T01:23:01;12.15;;;4.72;;
61756;SDS011;57225;61.460;24.060;2024-03-08T01:25:47;9.35;;;4.40;;
61756;SDS011;57225;61.460;24.060;2024-03-08T01:28:40;16.58;;;4.93;;
61756;SDS011;57225;61.460;24.060;2024-03-08T01:31:25;22.70;;;6.57;;
61756;SDS011;57225;61.460;24.060;2024-03-08T01:34:10;14.90;;;5.00;;
61756;SDS011;57225;61.460;24.060;2024-03-08T01:36:54;12.57;;;5.43;;
61756;SDS011;57225;61.460;24.060;2024-03-08T01:39:41;12.00;;;4.95;;
61756;SDS011;57225;61.460;24.060;2024-03-08T01:42:26;9.63;;;4.70;;
61756;SDS011;57225;61.460;24.060;2024-03-08T01:45:10;13.13;;;5.03;;
61756;SDS011;57225;61.460;24.060;2024-03-08T01:47:55;22.45;;;5.40;;
61756;SDS011;57225;61.460;24.060;2024-03-08T01:50:39;9.35;;;4.47;;
61756;SDS011;57225;61.460;24.060;2024-03-08T01:53:24;14.35;;;5.10;;
61756;SDS011;57225;61.460;24.060;2024-03-08T01:56:10;10.93;;;5.05;;
61756;SDS011;57225;61.460;24.060;2024-03-08T01:58:57;12.07;;;5.43;;
61756;SDS011;57225;61.460;24.060;2024-03-08T02:22:12;13.15;;;5.15;;
61756;SDS011;57225;61.460;24.060;2024-03-08T02:24:58;14.68;;;5.32;;
61756;SDS011;57225;61.460;24.060;2024-03-08T02:27:45;11.13;;;5.30;;
61756;SDS011;57225;61.460;24.060;2024-03-08T02:30:29;10.95;;;5.50;;
61756;SDS011;57225;61.460;24.060;2024-03-08T02:33:14;7.25;;;4.00;;
61756;SDS011;57225;61.460;24.060;2024-03-08T02:36:02;7.07;;;3.67;;
61756;SDS011;57225;61.460;24.060;2024-03-08T02:38:46;10.85;;;4.57;;
61756;SDS011;57225;61.460;24.060;2024-03-08T02:41:31;8.68;;;4.40;;
61756;SDS011;57225;61.460;24.060;2024-03-08T02:44:16;10.88;;;5.18;;
61756;SDS011;57225;61.460;24.060;2024-03-08T02:47:05;10.98;;;4.97;;
61756;SDS011;57225;61.460;24.060;2024-03-08T02:49:49;9.48;;;4.75;;
61756;SDS011;57225;61.460;24.060;2024-03-08T02:52:35;9.88;;;4.68;;
61756;SDS011;57225;61.460;24.060;2024-03-08T02:55:20;8.85;;;4.53;;
61756;SDS011;57225;61.460;24.060;2024-03-08T02:58:04;11.40;;;4.72;;
61756;SDS011;57225;61.460;24.060;2024-03-08T03:00:49;10.27;;;4.85;;
61756;SDS011;57225;61.460;24.060;2024-03-08T03:03:33;11.40;;;5.05;;
61756;SDS011;57225;61.460;24.060;2024-03-08T03:06:18;12.82;;;5.45;;
61756;SDS011;57225;61.460;24.060;2024-03-08T03:09:04;10.88;;;5.15;;
61756;SDS011;57225;61.460;24.060;2024-03-08T03:11:50;12.80;;;5.10;;
61756;SDS011;57225;61.460;24.060;2024-03-08T03:14:37;12.90;;;5.47;;
61756;SDS011;57225;61.460;24.060;2024-03-08T03:17:24;10.32;;;4.68;;
61756;SDS011;57225;61.460;24.060;2024-03-08T03:20:09;10.38;;;5.35;;
61756;SDS011;57225;61.460;24.060;2024-03-08T03:22:56;9.02;;;4.32;;
61756;SDS011;57225;61.460;24.060;2024-03-08T03:25:41;10.45;;;4.78;;
61756;SDS011;57225;61.460;24.060;2024-03-08T03:28:25;9.48;;;4.85;;
61756;SDS011;57225;61.460;24.060;2024-03-08T03:31:12;10.82;;;5.13;;
61756;SDS011;57225;61.460;24.060;2024-03-08T03:33:58;11.98;;;5.32;;
61756;SDS011;57225;61.460;24.060;2024-03-08T03:36:46;11.18;;;5.40;;
61756;SDS011;57225;61.460;24.060;2024-03-08T03:39:33;10.27;;;5.03;;
61756;SDS011;57225;61.460;24.060;2024-03-08T03:42:32;10.70;;;5.38;;
61756;SDS011;57225;61.460;24.060;2024-03-08T03:45:18;13.23;;;5.13;;
61756;SDS011;57225;61.460;24.060;2024-03-08T03:48:04;10.38;;;5.00;;
61756;SDS011;57225;61.460;24.060;2024-03-08T03:50:56;21.98;;;6.20;;
61756;SDS011;57225;61.460;24.060;2024-03-08T03:53:40;11.48;;;5.65;;
61756;SDS011;57225;61.460;24.060;2024-03-08T03:56:25;24.52;;;5.90;;
61756;SDS011;57225;61.460;24.060;2024-03-08T03:59:10;14.48;;;6.57;;
61756;SDS011;57225;61.460;24.060;2024-03-08T04:01:56;12.77;;;6.03;;
61756;SDS011;57225;61.460;24.060;2024-03-08T04:04:40;13.30;;;6.05;;
61756;SDS011;57225;61.460;24.060;2024-03-08T04:07:25;11.93;;;5.80;;
61756;SDS011;57225;61.460;24.060;2024-03-08T04:10:10;17.95;;;6.38;;
61756;SDS011;57225;61.460;24.060;2024-03-08T04:12:55;14.52;;;6.55;;
61756;SDS011;57225;61.460;24.060;2024-03-08T04:15:41;14.63;;;6.60;;
61756;SDS011;57225;61.460;24.060;2024-03-08T04:18:27;12.75;;;6.45;;
61756;SDS011;57225;61.460;24.060;2024-03-08T04:21:12;14.95;;;6.63;;
61756;SDS011;57225;61.460;24.060;2024-03-08T04:23:56;15.02;;;7.20;;
61756;SDS011;57225;61.460;24.060;2024-03-08T04:26:50;14.43;;;7.05;;
61756;SDS011;57225;61.460;24.060;2024-03-08T04:29:35;13.93;;;6.85;;
61756;SDS011;57225;61.460;24.060;2024-03-08T04:32:20;13.75;;;6.30;;
61756;SDS011;57225;61.460;24.060;2024-03-08T04:35:06;12.90;;;6.47;;
61756;SDS011;57225;61.460;24.060;2024-03-08T04:37:51;12.48;;;6.32;;
61756;SDS011;57225;61.460;24.060;2024-03-08T04:40:36;13.07;;;6.38;;
61756;SDS011;57225;61.460;24.060;2024-03-08T04:43:20;14.73;;;6.22;;
61756;SDS011;57225;61.460;24.060;2024-03-08T04:46:05;12.35;;;5.57;;
61756;SDS011;57225;61.460;24.060;2024-03-08T04:48:50;16.05;;;5.93;;
61756;SDS011;57225;61.460;24.060;2024-03-08T04:51:34;11.50;;;5.57;;
61756;SDS011;57225;61.460;24.060;2024-03-08T04:54:19;13.23;;;4.97;;
61756;SDS011;57225;61.460;24.060;2024-03-08T04:57:03;11.43;;;5.05;;
61756;SDS011;57225;61.460;24.060;2024-03-08T04:59:48;8.68;;;4.32;;
61756;SDS011;57225;61.460;24.060;2024-03-08T05:02:32;7.97;;;4.25;;
61756;SDS011;57225;61.460;24.060;2024-03-08T05:05:17;7.70;;;4.53;;
61756;SDS011;57225;61.460;24.060;2024-03-08T05:08:01;8.05;;;4.32;;
61756;SDS011;57225;61.460;24.060;2024-03-08T05:10:46;7.90;;;4.15;;
61756;SDS011;57225;61.460;24.060;2024-03-08T05:13:31;7.15;;;3.90;;
61756;SDS011;57225;61.460;24.060;2024-03-08T05:16:16;7.50;;;3.80;;
61756;SDS011;57225;61.460;24.060;2024-03-08T05:19:04;9.60;;;4.25;;
61756;SDS011;57225;61.460;24.060;2024-03-08T05:21:49;8.63;;;3.97;;
61756;SDS011;57225;61.460;24.060;2024-03-08T05:24:34;7.22;;;4.10;;
61756;SDS011;57225;61.460;24.060;2024-03-08T05:27:19;8.10;;;3.88;;
61756;SDS011;57225;61.460;24.060;2024-03-08T05:30:03;8.30;;;4.00;;
61756;SDS011;57225;61.460;24.060;2024-03-08T05:32:48;11.05;;;3.83;;
61756;SDS011;57225;61.460;24.060;2024-03-08T05:35:33;7.43;;;3.58;;
61756;SDS011;57225;61.460;24.060;2024-03-08T05:38:17;10.82;;;3.97;;
61756;SDS011;57225;61.460;24.060;2024-03-08T05:41:03;7.28;;;3.30;;
61756;SDS011;57225;61.460;24.060;2024-03-08T05:43:48;6.65;;;3.63;;
61756;SDS011;57225;61.460;24.060;2024-03-08T05:46:33;6.05;;;3.33;;
61756;SDS011;57225;61.460;24.060;2024-03-08T05:49:19;7.30;;;3.17;;
61756;SDS011;57225;61.460;24.060;2024-03-08T05:52:05;7.47;;;3.50;;
61756;SDS011;57225;61.460;24.060;2024-03-08T05:54:49;9.60;;;3.55;;
61756;SDS011;57225;61.460;24.060;2024-03-08T05:57:34;7.57;;;3.40;;
61756;SDS011;57225;61.460;24.060;2024-03-08T06:00:21;8.90;;;3.58;;
61756;SDS011;57225;61.460;24.060;2024-03-08T06:03:06;5.30;;;3.33;;
61756;SDS011;57225;61.460;24.060;2024-03-08T06:05:51;8.20;;;3.53;;
61756;SDS011;57225;61.460;24.060;2024-03-08T06:08:36;4.78;;;2.83;;
61756;SDS011;57225;61.460;24.060;2024-03-08T06:11:21;6.40;;;2.85;;
61756;SDS011;57225;61.460;24.060;2024-03-08T06:14:05;7.85;;;2.97;;
61756;SDS011;57225;61.460;24.060;2024-03-08T06:16:49;6.78;;;3.00;;
61756;SDS011;57225;61.460;24.060;2024-03-08T06:19:34;4.93;;;2.67;;
61756;SDS011;57225;61.460;24.060;2024-03-08T06:22:20;5.43;;;3.13;;
61756;SDS011;57225;61.460;24.060;2024-03-08T06:25:04;5.38;;;2.90;;
61756;SDS011;57225;61.460;24.060;2024-03-08T06:27:51;10.63;;;3.42;;
61756;SDS011;57225;61.460;24.060;2024-03-08T06:30:36;9.63;;;3.15;;
61756;SDS011;57225;61.460;24.060;2024-03-08T06:33:21;6.10;;;3.25;;
61756;SDS011;57225;61.460;24.060;2024-03-08T06:36:05;5.93;;;3.20;;
61756;SDS011;57225;61.460;24.060;2024-03-08T06:38:50;5.80;;;3.38;;
61756;SDS011;57225;61.460;24.060;2024-03-08T06:41:38;5.95;;;3.17;;
61756;SDS011;57225;61.460;24.060;2024-03-08T06:44:22;5.57;;;3.05;;
61756;SDS011;57225;61.460;24.060;2024-03-08T06:47:06;7.38;;;3.30;;
61756;SDS011;57225;61.460;24.060;2024-03-08T06:49:51;7.45;;;3.63;;
61756;SDS011;57225;61.460;24.060;2024-03-08T06:52:36;5.93;;;3.17;;
61756;SDS011;57225;61.460;24.060;2024-03-08T06:55:21;6.43;;;3.35;;
61756;SDS011;57225;61.460;24.060;2024-03-08T06:58:05;8.10;;;3.05;;
61756;SDS011;57225;61.460;24.060;2024-03-08T07:00:54;5.65;;;2.88;;
61756;SDS011;57225;61.460;24.060;2024-03-08T07:03:41;6.07;;;2.90;;
61756;SDS011;57225;61.460;24.060;2024-03-08T07:06:27;7.45;;;3.17;;
61756;SDS011;57225;61.460;24.060;2024-03-08T07:09:12;6.07;;;3.20;;
61756;SDS011;57225;61.460;24.060;2024-03-08T07:11:57;5.88;;;3.80;;
61756;SDS011;57225;61.460;24.060;2024-03-08T07:14:42;7.43;;;3.55;;
61756;SDS011;57225;61.460;24.060;2024-03-08T07:17:28;6.22;;;3.28;;
61756;SDS011;57225;61.460;24.060;2024-03-08T07:20:13;6.38;;;3.20;;
61756;SDS011;57225;61.460;24.060;2024-03-08T07:23:02;6.32;;;3.28;;
61756;SDS011;57225;61.460;24.060;2024-03-08T07:25:48;7.45;;;3.40;;
61756;SDS011;57225;61.460;24.060;2024-03-08T07:28:32;5.72;;;3.00;;
61756;SDS011;57225;61.460;24.060;2024-03-08T07:31:17;6.80;;;3.40;;
61756;SDS011;57225;61.460;24.060;2024-03-08T07:34:10;5.93;;;3.40;;
61756;SDS011;57225;61.460;24.060;2024-03-08T07:36:55;7.25;;;2.92;;
61756;SDS011;57225;61.460;24.060;2024-03-08T07:39:40;6.22;;;2.60;;
61756;SDS011;57225;61.460;24.060;2024-03-08T07:42:24;7.00;;;3.10;;
61756;SDS011;57225;61.460;24.060;2024-03-08T07:45:09;5.70;;;3.17;;
61756;SDS011;57225;61.460;24.060;2024-03-08T07:47:53;7.22;;;3.38;;
61756;SDS011;57225;61.460;24.060;2024-03-08T07:50:40;9.60;;;4.03;;
61756;SDS011;57225;61.460;24.060;2024-03-08T07:53:24;6.15;;;3.20;;
61756;SDS011;57225;61.460;24.060;2024-03-08T07:56:09;8.35;;;3.67;;
61756;SDS011;57225;61.460;24.060;2024-03-08T07:58:56;9.77;;;3.90;;
61756;SDS011;57225;61.460;24.060;2024-03-08T08:01:41;6.35;;;3.15;;
61756;SDS011;57225;61.460;24.060;2024-03-08T08:04:25;6.80;;;3.70;;
61756;SDS011;57225;61.460;24.060;2024-03-08T08:07:11;11.90;;;3.83;;
61756;SDS011;57225;61.460;24.060;2024-03-08T08:09:55;6.45;;;3.13;;
61756;SDS011;57225;61.460;24.060;2024-03-08T08:12:40;6.63;;;3.20;;
61756;SDS011;57225;61.460;24.060;2024-03-08T08:15:25;6.65;;;3.47;;
61756;SDS011;57225;61.460;24.060;2024-03-08T08:18:11;6.20;;;3.20;;
61756;SDS011;57225;61.460;24.060;2024-03-08T08:20:57;7.32;;;3.35;;
61756;SDS011;57225;61.460;24.060;2024-03-08T08:23:42;7.68;;;3.50;;
61756;SDS011;57225;61.460;24.060;2024-03-08T08:26:35;6.57;;;3.10;;
61756;SDS011;57225;61.460;24.060;2024-03-08T08:29:32;7.78;;;3.20;;
61756;SDS011;57225;61.460;24.060;2024-03-08T08:32:17;5.72;;;3.25;;
61756;SDS011;57225;61.460;24.060;2024-03-08T08:35:02;7.38;;;3.20;;
61756;SDS011;57225;61.460;24.060;2024-03-08T08:37:48;6.72;;;3.70;;
61756;SDS011;57225;61.460;24.060;2024-03-08T08:40:33;7.53;;;3.40;;
61756;SDS011;57225;61.460;24.060;2024-03-08T08:43:19;6.70;;;3.60;;
61756;SDS011;57225;61.460;24.060;2024-03-08T08:46:07;6.05;;;3.45;;
61756;SDS011;57225;61.460;24.060;2024-03-08T08:48:52;6.05;;;3.10;;
61756;SDS011;57225;61.460;24.060;2024-03-08T08:51:36;8.70;;;3.85;;
61756;SDS011;57225;61.460;24.060;2024-03-08T08:54:20;8.10;;;3.25;;
61756;SDS011;57225;61.460;24.060;2024-03-08T08:57:05;8.45;;;3.15;;
61756;SDS011;57225;61.460;24.060;2024-03-08T08:59:52;7.45;;;3.35;;
61756;SDS011;57225;61.460;24.060;2024-03-08T09:02:36;6.97;;;3.35;;
61756;SDS011;57225;61.460;24.060;2024-03-08T09:05:21;6.53;;;3.00;;
61756;SDS011;57225;61.460;24.060;2024-03-08T09:08:08;7.97;;;3.13;;
61756;SDS011;57225;61.460;24.060;2024-03-08T09:10:52;9.50;;;3.80;;
61756;SDS011;57225;61.460;24.060;2024-03-08T09:13:36;9.45;;;3.42;;
61756;SDS011;57225;61.460;24.060;2024-03-08T09:16:21;5.32;;;2.85;;
61756;SDS011;57225;61.460;24.060;2024-03-08T09:19:06;6.97;;;2.90;;
61756;SDS011;57225;61.460;24.060;2024-03-08T09:21:51;6.53;;;3.17;;
61756;SDS011;57225;61.460;24.060;2024-03-08T09:24:35;7.50;;;3.15;;
61756;SDS011;57225;61.460;24.060;2024-03-08T09:27:20;10.02;;;3.47;;
61756;SDS011;57225;61.460;24.060;2024-03-08T09:30:04;5.90;;;3.00;;
61756;SDS011;57225;61.460;24.060;2024-03-08T09:32:50;9.90;;;2.88;;
61756;SDS011;57225;61.460;24.060;2024-03-08T09:35:35;6.00;;;2.83;;
61756;SDS011;57225;61.460;24.060;2024-03-08T09:38:20;9.00;;;2.92;;
61756;SDS011;57225;61.460;24.060;2024-03-08T09:41:06;6.88;;;3.10;;
61756;SDS011;57225;61.460;24.060;2024-03-08T09:43:53;5.70;;;2.75;;
61756;SDS011;57225;61.460;24.060;2024-03-08T09:46:39;4.65;;;2.50;;
61756;SDS011;57225;61.460;24.060;2024-03-08T09:49:24;4.53;;;2.60;;
61756;SDS011;57225;61.460;24.060;2024-03-08T09:52:09;6.30;;;2.50;;
61756;SDS011;57225;61.460;24.060;2024-03-08T09:54:56;5.25;;;2.90;;
61756;SDS011;57225;61.460;24.060;2024-03-08T09:57:41;6.25;;;2.65;;
61756;SDS011;57225;61.460;24.060;2024-03-08T10:00:47;7.03;;;2.80;;
61756;SDS011;57225;61.460;24.060;2024-03-08T10:03:32;8.63;;;2.70;;
61756;SDS011;57225;61.460;24.060;2024-03-08T10:06:18;6.75;;;2.72;;
61756;SDS011;57225;61.460;24.060;2024-03-08T10:09:07;7.32;;;2.55;;
61756;SDS011;57225;61.460;24.060;2024-03-08T10:11:57;6.53;;;2.45;;
61756;SDS011;57225;61.460;24.060;2024-03-08T10:14:41;8.75;;;2.45;;
61756;SDS011;57225;61.460;24.060;2024-03-08T10:17:26;6.40;;;2.30;;
61756;SDS011;57225;61.460;24.060;2024-03-08T10:20:15;9.68;;;2.50;;
61756;SDS011;57225;61.460;24.060;2024-03-08T10:23:01;4.40;;;2.20;;
61756;SDS011;57225;61.460;24.060;2024-03-08T10:25:48;4.35;;;2.22;;
61756;SDS011;57225;61.460;24.060;2024-03-08T10:28:33;9.00;;;2.45;;
61756;SDS011;57225;61.460;24.060;2024-03-08T10:31:17;6.97;;;2.88;;
61756;SDS011;57225;61.460;24.060;2024-03-08T10:34:03;6.00;;;2.20;;
61756;SDS011;57225;61.460;24.060;2024-03-08T10:36:52;5.57;;;2.20;;
61756;SDS011;57225;61.460;24.060;2024-03-08T10:39:37;5.50;;;2.50;;
61756;SDS011;57225;61.460;24.060;2024-03-08T10:42:22;5.32;;;2.63;;
61756;SDS011;57225;61.460;24.060;2024-03-08T10:45:15;4.25;;;2.03;;
61756;SDS011;57225;61.460;24.060;2024-03-08T10:48:28;6.75;;;2.22;;
61756;SDS011;57225;61.460;24.060;2024-03-08T10:51:16;5.22;;;2.30;;
61756;SDS011;57225;61.460;24.060;2024-03-08T10:54:02;6.93;;;2.40;;
61756;SDS011;57225;61.460;24.060;2024-03-08T10:56:50;5.18;;;2.22;;
61756;SDS011;57225;61.460;24.060;2024-03-08T10:59:35;5.25;;;2.30;;
61756;SDS011;57225;61.460;24.060;2024-03-08T11:02:19;9.65;;;2.63;;
61756;SDS011;57225;61.460;24.060;2024-03-08T11:05:04;5.00;;;2.40;;
61756;SDS011;57225;61.460;24.060;2024-03-08T11:07:49;4.47;;;2.28;;
61756;SDS011;57225;61.460;24.060;2024-03-08T11:10:36;6.63;;;2.47;;
61756;SDS011;57225;61.460;24.060;2024-03-08T11:13:41;6.10;;;2.40;;
61756;SDS011;57225;61.460;24.060;2024-03-08T11:22:03;5.47;;;2.50;;
61756;SDS011;57225;61.460;24.060;2024-03-08T11:24:51;8.50;;;2.80;;
61756;SDS011;57225;61.460;24.060;2024-03-08T11:27:37;8.57;;;3.10;;
61756;SDS011;57225;61.460;24.060;2024-03-08T11:30:22;6.22;;;2.42;;
61756;SDS011;57225;61.460;24.060;2024-03-08T11:33:10;7.78;;;2.90;;
61756;SDS011;57225;61.460;24.060;2024-03-08T11:39:00;5.97;;;2.42;;
61756;SDS011;57225;61.460;24.060;2024-03-08T11:41:53;4.90;;;2.50;;
61756;SDS011;57225;61.460;24.060;2024-03-08T11:44:37;6.10;;;2.42;;
61756;SDS011;57225;61.460;24.060;2024-03-08T11:47:22;8.15;;;2.90;;
61756;SDS011;57225;61.460;24.060;2024-03-08T11:50:06;6.57;;;2.40;;
61756;SDS011;57225;61.460;24.060;2024-03-08T11:53:00;4.63;;;2.50;;
61756;SDS011;57225;61.460;24.060;2024-03-08T11:55:46;6.90;;;2.85;;
61756;SDS011;57225;61.460;24.060;2024-03-08T11:58:33;6.43;;;2.63;;
61756;SDS011;57225;61.460;24.060;2024-03-08T12:01:27;6.68;;;2.80;;
61756;SDS011;57225;61.460;24.060;2024-03-08T12:04:31;5.57;;;2.33;;
61756;SDS011;57225;61.460;24.060;2024-03-08T12:07:19;7.43;;;2.88;;
61756;SDS011;57225;61.460;24.060;2024-03-08T12:10:20;5.43;;;2.45;;
61756;SDS011;57225;61.460;24.060;2024-03-08T12:13:06;4.85;;;2.45;;
61756;SDS011;57225;61.460;24.060;2024-03-08T12:16:03;8.27;;;2.72;;
61756;SDS011;57225;61.460;24.060;2024-03-08T12:18:48;6.32;;;2.55;;
61756;SDS011;57225;61.460;24.060;2024-03-08T12:21:36;4.13;;;2.60;;
61756;SDS011;57225;61.460;24.060;2024-03-08T12:24:21;4.75;;;2.65;;
61756;SDS011;57225;61.460;24.060;2024-03-08T12:27:27;6.97;;;2.40;;
61756;SDS011;57225;61.460;24.060;2024-03-08T12:30:19;6.07;;;2.70;;
61756;SDS011;57225;61.460;24.060;2024-03-08T12:33:10;6.47;;;2.90;;
61756;SDS011;57225;61.460;24.060;2024-03-08T12:35:56;4.05;;;2.28;;
61756;SDS011;57225;61.460;24.060;2024-03-08T12:38:44;6.38;;;2.50;;
61756;SDS011;57225;61.460;24.060;2024-03-08T12:41:32;6.68;;;2.55;;
61756;SDS011;57225;61.460;24.060;2024-03-08T12:44:23;4.55;;;2.25;;
61756;SDS011;57225;61.460;24.060;2024-03-08T12:47:08;8.63;;;2.72;;
61756;SDS011;57225;61.460;24.060;2024-03-08T12:49:53;6.00;;;2.55;;
61756;SDS011;57225;61.460;24.060;2024-03-08T12:52:37;5.75;;;2.50;;
61756;SDS011;57225;61.460;24.060;2024-03-08T12:55:22;7.47;;;2.60;;
61756;SDS011;57225;61.460;24.060;2024-03-08T12:58:07;3.72;;;2.33;;
61756;SDS011;57225;61.460;24.060;2024-03-08T13:00:51;7.95;;;3.20;;
61756;SDS011;57225;61.460;24.060;2024-03-08T13:03:36;8.05;;;2.80;;
61756;SDS011;57225;61.460;24.060;2024-03-08T13:06:21;9.60;;;3.25;;
61756;SDS011;57225;61.460;24.060;2024-03-08T13:09:08;5.55;;;2.70;;
61756;SDS011;57225;61.460;24.060;2024-03-08T13:11:53;6.50;;;2.65;;
61756;SDS011;57225;61.460;24.060;2024-03-08T13:14:40;5.57;;;2.92;;
61756;SDS011;57225;61.460;24.060;2024-03-08T13:17:24;5.20;;;2.50;;
61756;SDS011;57225;61.460;24.060;2024-03-08T13:20:09;5.60;;;2.30;;
61756;SDS011;57225;61.460;24.060;2024-03-08T13:23:00;6.80;;;2.70;;
61756;SDS011;57225;61.460;24.060;2024-03-08T13:25:45;4.70;;;2.83;;
61756;SDS011;57225;61.460;24.060;2024-03-08T13:28:33;7.18;;;2.60;;
61756;SDS011;57225;61.460;24.060;2024-03-08T13:31:21;20.92;;;3.50;;
61756;SDS011;57225;61.460;24.060;2024-03-08T13:34:05;6.50;;;2.60;;
61756;SDS011;57225;61.460;24.060;2024-03-08T13:36:49;10.02;;;2.70;;
61756;SDS011;57225;61.460;24.060;2024-03-08T13:39:35;5.55;;;2.28;;
61756;SDS011;57225;61.460;24.060;2024-03-08T13:42:24;5.72;;;3.20;;
61756;SDS011;57225;61.460;24.060;2024-03-08T13:45:09;8.25;;;3.00;;
61756;SDS011;57225;61.460;24.060;2024-03-08T13:47:58;6.00;;;3.30;;
61756;SDS011;57225;61.460;24.060;2024-03-08T13:50:43;6.30;;;2.92;;
61756;SDS011;57225;61.460;24.060;2024-03-08T13:53:27;8.07;;;2.47;;
61756;SDS011;57225;61.460;24.060;2024-03-08T13:56:12;5.07;;;2.22;;
61756;SDS011;57225;61.460;24.060;2024-03-08T13:58:58;4.28;;;2.05;;
61756;SDS011;57225;61.460;24.060;2024-03-08T14:01:43;5.55;;;2.35;;
61756;SDS011;57225;61.460;24.060;2024-03-08T14:04:28;8.70;;;2.30;;
61756;SDS011;57225;61.460;24.060;2024-03-08T14:07:12;4.53;;;1.88;;
61756;SDS011;57225;61.460;24.060;2024-03-08T14:09:57;4.25;;;1.98;;
61756;SDS011;57225;61.460;24.060;2024-03-08T14:12:41;7.43;;;2.40;;
61756;SDS011;57225;61.460;24.060;2024-03-08T14:15:27;3.60;;;2.00;;
61756;SDS011;57225;61.460;24.060;2024-03-08T14:18:11;5.65;;;2.13;;
61756;SDS011;57225;61.460;24.060;2024-03-08T14:20:57;2.63;;;1.48;;
61756;SDS011;57225;61.460;24.060;2024-03-08T14:23:42;6.05;;;2.28;;
61756;SDS011;57225;61.460;24.060;2024-03-08T14:26:36;4.28;;;1.88;;
61756;SDS011;57225;61.460;24.060;2024-03-08T14:29:22;7.63;;;2.35;;
61756;SDS011;57225;61.460;24.060;2024-03-08T14:32:07;5.18;;;2.15;;
61756;SDS011;57225;61.460;24.060;2024-03-08T14:34:52;8.45;;;2.20;;
61756;SDS011;57225;61.460;24.060;2024-03-08T14:37:38;4.20;;;2.10;;
61756;SDS011;57225;61.460;24.060;2024-03-08T14:40:23;4.30;;;2.22;;
61756;SDS011;57225;61.460;24.060;2024-03-08T14:43:09;7.00;;;2.00;;
61756;SDS011;57225;61.460;24.060;2024-03-08T14:45:54;8.00;;;2.25;;
61756;SDS011;57225;61.460;24.060;2024-03-08T14:48:40;6.63;;;2.00;;
61756;SDS011;57225;61.460;24.060;2024-03-08T14:51:25;6.85;;;1.80;;
61756;SDS011;57225;61.460;24.060;2024-03-08T14:54:11;4.43;;;2.03;;
61756;SDS011;57225;61.460;24.060;2024-03-08T14:56:57;5.65;;;2.00;;
61756;SDS011;57225;61.460;24.060;2024-03-08T14:59:41;6.47;;;2.30;;
61756;SDS011;57225;61.460;24.060;2024-03-08T15:02:27;3.65;;;1.92;;
61756;SDS011;57225;61.460;24.060;2024-03-08T15:05:13;9.18;;;2.22;;
61756;SDS011;57225;61.460;24.060;2024-03-08T15:07:57;8.30;;;2.00;;
61756;SDS011;57225;61.460;24.060;2024-03-08T15:10:52;3.95;;;1.98;;
61756;SDS011;57225;61.460;24.060;2024-03-08T15:13:42;7.20;;;2.38;;
61756;SDS011;57225;61.460;24.060;2024-03-08T15:16:28;8.25;;;2.35;;
61756;SDS011;57225;61.460;24.060;2024-03-08T15:19:13;11.05;;;2.47;;
61756;SDS011;57225;61.460;24.060;2024-03-08T15:21:59;7.90;;;2.28;;
61756;SDS011;57225;61.460;24.060;2024-03-08T15:24:44;15.40;;;2.67;;
61756;SDS011;57225;61.460;24.060;2024-03-08T15:27:28;7.25;;;2.55;;
61756;SDS011;57225;61.460;24.060;2024-03-08T15:30:13;6.00;;;2.30;;
61756;SDS011;57225;61.460;24.060;2024-03-08T15:32:57;10.60;;;2.60;;
61756;SDS011;57225;61.460;24.060;2024-03-08T15:35:44;6.47;;;2.40;;
61756;SDS011;57225;61.460;24.060;2024-03-08T15:38:34;5.28;;;2.05;;
61756;SDS011;57225;61.460;24.060;2024-03-08T15:41:19;7.05;;;2.20;;
61756;SDS011;57225;61.460;24.060;2024-03-08T15:44:04;6.35;;;2.65;;
61756;SDS011;57225;61.460;24.060;2024-03-08T15:46:49;7.30;;;2.60;;
61756;SDS011;57225;61.460;24.060;2024-03-08T15:49:33;10.88;;;2.40;;
61756;SDS011;57225;61.460;24.060;2024-03-08T15:52:17;6.50;;;2.90;;
61756;SDS011;57225;61.460;24.060;2024-03-08T15:55:02;14.75;;;3.53;;
61756;SDS011;57225;61.460;24.060;2024-03-08T15:57:49;10.38;;;3.40;;
61756;SDS011;57225;61.460;24.060;2024-03-08T16:00:39;10.02;;;2.90;;
61756;SDS011;57225;61.460;24.060;2024-03-08T16:03:32;6.80;;;2.45;;
61756;SDS011;57225;61.460;24.060;2024-03-08T16:06:17;6.75;;;2.60;;
61756;SDS011;57225;61.460;24.060;2024-03-08T16:09:08;7.25;;;2.72;;
61756;SDS011;57225;61.460;24.060;2024-03-08T16:11:58;8.30;;;2.70;;
61756;SDS011;57225;61.460;24.060;2024-03-08T16:14:43;13.27;;;2.75;;
61756;SDS011;57225;61.460;24.060;2024-03-08T16:17:27;5.80;;;2.28;;
61756;SDS011;57225;61.460;24.060;2024-03-08T16:20:12;5.38;;;2.33;;
61756;SDS011;57225;61.460;24.060;2024-03-08T16:22:58;4.72;;;2.22;;
61756;SDS011;57225;61.460;24.060;2024-03-08T16:25:43;6.15;;;2.40;;
61756;SDS011;57225;61.460;24.060;2024-03-08T16:28:28;8.50;;;2.40;;
61756;SDS011;57225;61.460;24.060;2024-03-08T16:31:21;5.22;;;1.90;;
61756;SDS011;57225;61.460;24.060;2024-03-08T16:34:06;3.67;;;1.63;;
61756;SDS011;57225;61.460;24.060;2024-03-08T16:36:52;6.18;;;1.98;;
61756;SDS011;57225;61.460;24.060;2024-03-08T16:39:37;5.85;;;1.60;;
61756;SDS011;57225;61.460;24.060;2024-03-08T16:42:23;6.32;;;1.70;;
61756;SDS011;57225;61.460;24.060;2024-03-08T16:45:07;8.68;;;2.03;;
61756;SDS011;57225;61.460;24.060;2024-03-08T16:47:54;6.53;;;1.55;;
61756;SDS011;57225;61.460;24.060;2024-03-08T16:50:41;7.22;;;2.08;;